Time;durP1;ratioP1;P1;durP2;ratioP2;P2;SDS_P1;SDS_P2;PMS_P1;PMS_P2;Temp;Humidity;BMP_temperature;BMP_pressure;BME280_temperature;BME280_humidity;BME280_pressure;Samples;Min_cycle;Max_cycle;Signal;HPM_P1;HPM_P2
2023/12/30 00:02:13;;;;;;;8.80;2.28;;;10.50;99.90;;;;;;10305555;28;20236;-62
2023/12/30 00:07:18;;;;;;;14.53;2.67;;;10.50;99.90;;;;;;10302986;28;20214;-63
2023/12/30 00:12:22;;;;;;;8.93;2.15;;;10.50;99.90;;;;;;10312341;28;20205;-62
2023/12/30 00:17:26;;;;;;;11.50;2.67;;;10.40;99.90;;;;;;10308994;28;20323;-63
2023/12/30 00:22:30;;;;;;;9.57;2.17;;;10.40;99.40;;;;;;10308127;28;20205;-63
2023/12/30 00:27:34;;;;;;;9.30;2.30;;;10.40;99.10;;;;;;10313959;28;20598;-64
2023/12/30 00:32:39;;;;;;;12.35;2.40;;;10.30;99.20;;;;;;10312177;28;20206;-64
2023/12/30 00:37:44;;;;;;;9.00;2.57;;;10.30;99.00;;;;;;10312202;28;20217;-64
2023/12/30 00:42:48;;;;;;;6.83;2.30;;;10.30;98.60;;;;;;10306639;28;20230;-63
2023/12/30 00:47:52;;;;;;;8.40;2.57;;;10.30;98.60;;;;;;10310464;28;20198;-63
2023/12/30 00:52:57;;;;;;;8.05;2.70;;;10.20;98.50;;;;;;10316746;28;20234;-63
2023/12/30 00:58:00;;;;;;;8.40;2.40;;;10.20;98.20;;;;;;10319545;28;20222;-64
2023/12/30 01:03:04;;;;;;;9.10;3.00;;;10.10;98.10;;;;;;10310927;28;20218;-61
2023/12/30 01:08:09;;;;;;;10.37;2.83;;;10.20;98.20;;;;;;10324539;28;20198;-63
2023/12/30 01:13:13;;;;;;;9.13;2.40;;;10.10;98.20;;;;;;10306037;28;20276;-63
2023/12/30 01:18:16;;;;;;;10.23;3.17;;;10.10;98.50;;;;;;10310765;28;20241;-63
2023/12/30 01:23:22;;;;;;;9.53;2.87;;;10.10;98.40;;;;;;10311025;28;20230;-63
2023/12/30 01:28:29;;;;;;;10.93;2.80;;;10.20;98.50;;;;;;10311134;28;20210;-63
2023/12/30 01:33:33;;;;;;;9.43;2.42;;;10.10;98.40;;;;;;10305371;28;20229;-64
2023/12/30 01:38:44;;;;;;;6.97;2.23;;;10.10;98.40;;;;;;10320801;28;20215;-63
2023/12/30 01:43:47;;;;;;;13.90;2.77;;;10.10;98.50;;;;;;10308948;28;20693;-64
2023/12/30 01:48:51;;;;;;;10.90;2.83;;;10.10;98.40;;;;;;10317348;28;20206;-64
2023/12/30 01:53:58;;;;;;;9.10;2.13;;;10.10;98.60;;;;;;10311918;28;20233;-64
2023/12/30 01:59:02;;;;;;;9.40;2.83;;;10.10;98.70;;;;;;10309522;28;20319;-62
2023/12/30 02:04:06;;;;;;;11.70;2.40;;;10.00;98.60;;;;;;10313952;28;20222;-63
2023/12/30 02:09:12;;;;;;;9.73;2.33;;;10.00;98.30;;;;;;10309901;28;20566;-63
2023/12/30 02:14:26;;;;;;;9.93;2.30;;;10.00;97.80;;;;;;10298756;28;20273;-63
2023/12/30 02:19:29;;;;;;;9.27;1.97;;;10.00;98.30;;;;;;10312939;28;20225;-65
2023/12/30 02:24:34;;;;;;;11.17;2.50;;;9.90;98.60;;;;;;10318060;28;20229;-61
2023/12/30 02:29:38;;;;;;;12.70;2.90;;;9.90;98.60;;;;;;10303407;28;20228;-63
2023/12/30 02:34:41;;;;;;;11.63;2.60;;;9.90;99.20;;;;;;10313469;28;20221;-63
2023/12/30 02:39:46;;;;;;;9.20;2.40;;;9.90;98.60;;;;;;10308102;28;20222;-63
2023/12/30 02:44:50;;;;;;;12.17;3.27;;;9.90;99.00;;;;;;10305361;28;20222;-62
2023/12/30 02:49:53;;;;;;;9.30;2.80;;;9.90;98.90;;;;;;10306234;28;20594;-64
2023/12/30 02:54:59;;;;;;;7.83;3.00;;;9.80;98.50;;;;;;10306125;28;20229;-63
2023/12/30 03:00:02;;;;;;;9.63;2.80;;;9.80;98.40;;;;;;10307154;28;20281;-64
2023/12/30 03:05:07;;;;;;;9.70;3.30;;;9.80;98.80;;;;;;10298892;28;20221;-64
2023/12/30 03:10:12;;;;;;;10.10;2.57;;;9.80;98.60;;;;;;10307225;28;20221;-63
2023/12/30 03:15:16;;;;;;;10.43;3.47;;;9.70;98.80;;;;;;10310125;28;20257;-64
2023/12/30 03:20:20;;;;;;;10.33;3.03;;;9.70;98.80;;;;;;10306312;28;20307;-64
2023/12/30 03:25:24;;;;;;;9.17;2.80;;;9.70;98.60;;;;;;10315043;28;20364;-63
2023/12/30 03:30:28;;;;;;;10.03;3.13;;;9.70;98.60;;;;;;10312143;28;20201;-62
2023/12/30 03:35:33;;;;;;;12.60;3.13;;;9.60;98.70;;;;;;10308571;28;20221;-63
2023/12/30 03:40:37;;;;;;;8.37;2.53;;;9.60;98.60;;;;;;10314721;28;20291;-63
2023/12/30 03:45:41;;;;;;;9.83;2.90;;;9.60;99.00;;;;;;10308866;28;20255;-63
2023/12/30 03:50:45;;;;;;;11.37;3.27;;;9.60;98.80;;;;;;10307829;28;20307;-63
2023/12/30 03:55:52;;;;;;;15.90;3.70;;;9.60;98.70;;;;;;10310303;28;20630;-64
2023/12/30 04:01:03;;;;;;;13.30;3.13;;;9.60;99.00;;;;;;10302346;28;20293;-63
2023/12/30 04:06:07;;;;;;;9.37;3.10;;;9.60;99.10;;;;;;10310021;28;20230;-62
2023/12/30 04:11:12;;;;;;;14.67;3.03;;;9.60;98.90;;;;;;10313630;28;20263;-64
2023/12/30 04:16:16;;;;;;;11.63;2.47;;;9.70;99.30;;;;;;10303246;28;20222;-63
2023/12/30 04:21:19;;;;;;;10.33;2.40;;;9.70;99.00;;;;;;10308138;28;20217;-63
2023/12/30 04:26:24;;;;;;;8.77;2.30;;;9.70;99.00;;;;;;10310190;28;20225;-63
2023/12/30 04:31:31;;;;;;;12.47;3.43;;;9.70;99.20;;;;;;10313717;28;20197;-63
2023/12/30 04:36:35;;;;;;;8.77;2.27;;;9.70;99.10;;;;;;10318035;28;20268;-63
2023/12/30 04:41:41;;;;;;;9.77;2.37;;;9.70;99.20;;;;;;10312854;28;20260;-64
2023/12/30 04:46:44;;;;;;;9.03;2.20;;;9.70;99.30;;;;;;10318409;28;20222;-64
2023/12/30 04:51:48;;;;;;;14.10;2.97;;;9.60;99.20;;;;;;10311940;28;20675;-65
2023/12/30 04:56:53;;;;;;;8.33;2.60;;;9.60;99.10;;;;;;10314211;28;20604;-65
2023/12/30 05:01:57;;;;;;;10.27;2.70;;;9.60;99.50;;;;;;10312712;28;20277;-64
2023/12/30 05:07:00;;;;;;;8.70;2.20;;;9.60;99.10;;;;;;10314392;28;20249;-63
2023/12/30 05:12:06;;;;;;;9.97;2.70;;;9.50;98.90;;;;;;10321381;28;20202;-63
2023/12/30 05:17:10;;;;;;;8.43;2.50;;;9.50;99.00;;;;;;10309086;28;20230;-63
2023/12/30 05:22:15;;;;;;;9.93;2.93;;;9.50;98.80;;;;;;10306241;28;20788;-63
2023/12/30 05:27:21;;;;;;;15.77;3.00;;;9.40;98.80;;;;;;10310088;28;20254;-63
2023/12/30 05:32:25;;;;;;;12.90;2.57;;;9.40;98.90;;;;;;10314120;28;20242;-63
2023/12/30 05:37:28;;;;;;;8.07;2.20;;;9.40;98.70;;;;;;10315519;28;20201;-63
2023/12/30 05:42:33;;;;;;;9.27;2.47;;;9.30;98.70;;;;;;10307676;28;20623;-62
2023/12/30 05:47:37;;;;;;;13.20;3.17;;;9.30;98.90;;;;;;10311714;28;20209;-64
2023/12/30 05:52:41;;;;;;;12.50;2.87;;;9.30;98.90;;;;;;10311956;28;20202;-63
2023/12/30 05:57:55;;;;;;;8.83;2.50;;;9.30;98.80;;;;;;10311473;28;20665;-64
2023/12/30 06:02:59;;;;;;;12.33;2.40;;;9.30;98.60;;;;;;10320334;28;20266;-63
2023/12/30 06:08:05;;;;;;;9.40;2.40;;;9.30;98.60;;;;;;10313178;28;20229;-64
2023/12/30 06:13:10;;;;;;;10.73;2.20;;;9.30;98.40;;;;;;10305427;28;20275;-63
2023/12/30 06:18:14;;;;;;;7.27;2.33;;;9.30;98.40;;;;;;10306383;28;20230;-62
2023/12/30 06:23:17;;;;;;;8.37;2.67;;;9.30;98.30;;;;;;10306404;28;20604;-64
2023/12/30 06:28:24;;;;;;;12.10;3.10;;;9.30;98.50;;;;;;10316605;28;20753;-64
2023/12/30 06:33:27;;;;;;;11.90;2.70;;;9.30;98.70;;;;;;10313635;28;20260;-64
2023/12/30 06:38:31;;;;;;;15.73;3.10;;;9.30;98.80;;;;;;10318495;28;20205;-64
2023/12/30 06:43:36;;;;;;;9.80;2.77;;;9.30;98.90;;;;;;10309687;28;21002;-64
2023/12/30 06:48:40;;;;;;;10.00;3.00;;;9.30;99.80;;;;;;10313381;28;20202;-63
2023/12/30 06:53:43;;;;;;;10.63;2.80;;;9.30;99.30;;;;;;10313452;28;20264;-63
2023/12/30 06:58:48;;;;;;;11.83;2.73;;;9.30;99.30;;;;;;10311419;28;20288;-63
2023/12/30 07:03:52;;;;;;;9.87;2.80;;;9.30;99.70;;;;;;10307523;28;20229;-63
2023/12/30 07:08:56;;;;;;;8.90;2.60;;;9.40;99.30;;;;;;10306752;28;20265;-63
2023/12/30 07:14:01;;;;;;;10.57;2.57;;;9.40;99.50;;;;;;10307947;28;20280;-61
2023/12/30 07:19:04;;;;;;;11.90;2.70;;;9.40;99.50;;;;;;10308218;28;20206;-63
2023/12/30 07:24:21;;;;;;;8.80;2.67;;;9.40;99.40;;;;;;10309844;28;20261;-63
2023/12/30 07:29:42;;;;;;;11.37;3.10;;;9.30;99.30;;;;;;10253462;28;20256;-64
2023/12/30 07:34:45;;;;;;;14.43;3.03;;;9.30;99.40;;;;;;10316266;28;20276;-63
2023/12/30 07:39:50;;;;;;;10.27;3.30;;;9.30;99.80;;;;;;10323736;28;20217;-65
2023/12/30 07:44:55;;;;;;;15.43;3.23;;;9.30;99.30;;;;;;10322044;28;20221;-64
2023/12/30 07:50:00;;;;;;;16.80;3.93;;;9.20;99.40;;;;;;10324886;28;20806;-63
2023/12/30 07:55:04;;;;;;;10.47;2.63;;;9.30;99.50;;;;;;10327957;28;20862;-62
2023/12/30 08:00:10;;;;;;;12.17;2.70;;;9.20;99.00;;;;;;10330208;28;20221;-61
2023/12/30 08:05:14;;;;;;;9.27;2.67;;;9.30;99.20;;;;;;10322095;28;20280;-63
2023/12/30 08:10:18;;;;;;;10.60;3.30;;;9.30;99.20;;;;;;10335327;28;20198;-63
2023/12/30 08:15:23;;;;;;;10.13;2.90;;;9.30;99.20;;;;;;10335152;28;20276;-63
2023/12/30 08:20:27;;;;;;;14.13;3.07;;;9.30;99.10;;;;;;10330041;28;20229;-62
2023/12/30 08:25:31;;;;;;;10.53;2.70;;;9.30;99.10;;;;;;10331419;28;20295;-64
2023/12/30 08:30:35;;;;;;;12.47;3.33;;;9.40;99.30;;;;;;10328138;28;20341;-63
2023/12/30 08:35:39;;;;;;;11.77;3.30;;;9.40;99.20;;;;;;10318845;28;20484;-63
2023/12/30 08:40:43;;;;;;;12.57;3.37;;;9.50;99.50;;;;;;10323349;28;20624;-61
2023/12/30 08:45:48;;;;;;;9.70;2.73;;;9.60;99.30;;;;;;10323566;28;20303;-61
2023/12/30 08:50:51;;;;;;;8.63;2.97;;;9.50;99.10;;;;;;10313377;28;20214;-62
2023/12/30 08:55:55;;;;;;;10.90;2.73;;;9.60;99.20;;;;;;10324679;28;20589;-65
2023/12/30 09:01:00;;;;;;;9.57;2.57;;;9.60;98.90;;;;;;10321187;28;20571;-61
2023/12/30 09:06:04;;;;;;;9.67;3.00;;;9.60;99.10;;;;;;10314707;28;20222;-62
2023/12/30 09:11:18;;;;;;;10.67;2.70;;;9.60;99.10;;;;;;10321953;28;20198;-62
2023/12/30 09:16:23;;;;;;;8.43;2.67;;;9.60;99.30;;;;;;10319100;28;20284;-62
2023/12/30 09:21:29;;;;;;;9.53;2.60;;;9.70;99.30;;;;;;10323333;28;20546;-61
2023/12/30 09:26:38;;;;;;;11.77;2.67;;;9.70;99.20;;;;;;10309160;28;20822;-62
2023/12/30 09:31:43;;;;;;;9.30;2.43;;;9.70;99.40;;;;;;10314352;28;20202;-61
2023/12/30 09:36:47;;;;;;;14.53;2.93;;;9.70;99.20;;;;;;10311683;28;20229;-64
2023/12/30 09:41:50;;;;;;;8.23;2.53;;;9.70;99.20;;;;;;10314124;28;20752;-61
2023/12/30 09:46:56;;;;;;;10.37;3.33;;;9.70;99.40;;;;;;10316229;28;21560;-62
2023/12/30 09:52:02;;;;;;;9.90;2.63;;;9.80;99.20;;;;;;10309071;28;20276;-63
2023/12/30 09:57:06;;;;;;;14.57;3.17;;;9.80;99.30;;;;;;10311695;28;20225;-62
2023/12/30 10:02:12;;;;;;;13.17;3.10;;;9.80;99.30;;;;;;10311884;28;20277;-61
2023/12/30 10:07:16;;;;;;;9.93;2.67;;;9.80;99.30;;;;;;10321360;28;20284;-63
2023/12/30 10:12:25;;;;;;;14.20;3.92;;;9.90;99.20;;;;;;10307904;28;20301;-61
2023/12/30 10:17:32;;;;;;;13.00;2.77;;;9.90;99.20;;;;;;10304313;28;20261;-63
2023/12/30 10:22:38;;;;;;;11.57;2.97;;;9.90;99.30;;;;;;10309816;28;20281;-63
2023/12/30 10:27:49;;;;;;;12.50;3.70;;;10.00;98.90;;;;;;10320965;28;20257;-63
2023/12/30 10:32:54;;;;;;;14.43;3.23;;;10.00;98.90;;;;;;10316379;28;20213;-62
2023/12/30 10:38:05;;;;;;;11.27;2.73;;;10.00;98.80;;;;;;10308904;28;20560;-63
2023/12/30 10:43:16;;;;;;;14.00;3.63;;;10.10;98.80;;;;;;10303831;28;20238;-63
2023/12/30 10:48:22;;;;;;;11.17;2.97;;;10.10;98.90;;;;;;10324254;28;20209;-62
2023/12/30 10:53:30;;;;;;;11.20;2.93;;;10.20;98.60;;;;;;10312161;28;20233;-63
2023/12/30 10:58:35;;;;;;;9.67;2.77;;;10.20;98.40;;;;;;10315195;28;20261;-63
2023/12/30 11:03:42;;;;;;;11.60;3.70;;;10.20;98.10;;;;;;10312041;28;20225;-63
2023/12/30 11:08:52;;;;;;;14.07;3.53;;;10.20;98.10;;;;;;10314650;28;20213;-63
2023/12/30 11:13:58;;;;;;;12.13;3.27;;;10.20;97.80;;;;;;10308565;28;20245;-63
2023/12/30 11:19:04;;;;;;;12.83;3.43;;;10.30;98.30;;;;;;10319165;28;20572;-63
2023/12/30 11:24:09;;;;;;;10.37;3.00;;;10.30;98.00;;;;;;10315506;28;20229;-63
2023/12/30 11:29:14;;;;;;;11.77;3.33;;;10.30;97.90;;;;;;10302453;28;20737;-63
2023/12/30 11:34:20;;;;;;;11.53;3.37;;;10.30;98.00;;;;;;10309986;28;20763;-62
2023/12/30 11:39:26;;;;;;;9.15;3.13;;;10.30;98.00;;;;;;10311996;28;20254;-62
2023/12/30 11:44:30;;;;;;;11.43;3.10;;;10.40;97.80;;;;;;10312904;28;20626;-62
2023/12/30 11:49:35;;;;;;;11.93;3.00;;;10.40;97.80;;;;;;10314996;28;20210;-63
2023/12/30 11:54:39;;;;;;;9.25;3.17;;;10.50;97.80;;;;;;10309341;28;20759;-63
2023/12/30 11:59:45;;;;;;;11.67;3.03;;;10.50;97.70;;;;;;10313054;28;20214;-62
2023/12/30 12:04:50;;;;;;;11.93;2.70;;;10.60;97.60;;;;;;10303428;28;20226;-62
2023/12/30 12:10:10;;;;;;;17.97;2.93;;;10.60;97.60;;;;;;10312753;28;20252;-62
2023/12/30 12:15:14;;;;;;;12.10;3.37;;;10.70;97.60;;;;;;10307997;28;20217;-64
2023/12/30 12:20:19;;;;;;;10.20;2.80;;;10.80;97.80;;;;;;10318413;28;20203;-62
2023/12/30 12:25:24;;;;;;;16.58;2.78;;;10.80;97.80;;;;;;10316327;28;20285;-62
2023/12/30 12:30:30;;;;;;;9.27;2.60;;;10.80;97.90;;;;;;10314344;28;20546;-62
2023/12/30 12:35:37;;;;;;;13.17;2.50;;;10.90;97.90;;;;;;10309783;28;20276;-62
2023/12/30 12:40:40;;;;;;;12.07;2.60;;;11.00;97.40;;;;;;10306165;28;20194;-62
2023/12/30 12:45:46;;;;;;;9.25;2.45;;;11.00;97.30;;;;;;10312603;28;20229;-61
2023/12/30 12:50:55;;;;;;;8.67;2.57;;;11.10;97.20;;;;;;10319766;28;20256;-62
2023/12/30 12:56:01;;;;;;;10.30;2.43;;;11.10;97.10;;;;;;10309452;28;20233;-65
2023/12/30 13:01:14;;;;;;;13.57;2.70;;;11.30;96.70;;;;;;10312996;28;20267;-63
2023/12/30 13:06:22;;;;;;;10.50;2.47;;;11.20;96.40;;;;;;10323006;28;20229;-62
2023/12/30 13:11:31;;;;;;;9.73;2.53;;;11.20;96.90;;;;;;10317206;28;20556;-61
2023/12/30 13:16:38;;;;;;;13.20;2.30;;;11.20;96.40;;;;;;10320694;28;20218;-61
2023/12/30 13:21:43;;;;;;;9.13;1.83;;;11.10;96.30;;;;;;10314318;28;20206;-62
2023/12/30 13:26:49;;;;;;;9.53;2.10;;;11.10;96.10;;;;;;10313312;28;20601;-62
2023/12/30 13:31:54;;;;;;;9.18;2.03;;;11.10;96.00;;;;;;10319765;28;20941;-64
2023/12/30 13:37:04;;;;;;;8.35;2.25;;;11.20;96.10;;;;;;10316669;28;20745;-63
2023/12/30 13:42:15;;;;;;;8.55;2.10;;;11.20;96.00;;;;;;10321853;28;20209;-62
2023/12/30 13:47:50;;;;;;;10.97;2.37;;;11.30;95.70;;;;;;10322997;28;20225;-61
2023/12/30 13:53:00;;;;;;;8.00;2.50;;;11.30;95.50;;;;;;10315120;28;20225;-62
2023/12/30 13:58:05;;;;;;;10.73;2.40;;;11.40;95.60;;;;;;10312864;28;20686;-62
2023/12/30 14:03:09;;;;;;;7.70;1.77;;;11.40;95.40;;;;;;10303197;28;20935;-63
2023/12/30 14:08:24;;;;;;;10.13;2.10;;;11.50;95.60;;;;;;10324993;28;20268;-62
2023/12/30 14:13:28;;;;;;;8.02;1.92;;;11.50;95.50;;;;;;10314180;28;20229;-61
2023/12/30 14:18:32;;;;;;;9.07;2.42;;;11.60;94.60;;;;;;10319798;28;20268;-63
2023/12/30 14:23:37;;;;;;;6.65;1.92;;;11.60;95.10;;;;;;10316112;28;20287;-61
2023/12/30 14:28:41;;;;;;;6.95;1.77;;;11.60;95.10;;;;;;10315626;28;20229;-63
2023/12/30 14:33:44;;;;;;;8.98;2.58;;;11.60;94.70;;;;;;10313828;28;20225;-63
2023/12/30 14:38:50;;;;;;;6.97;2.00;;;11.50;94.70;;;;;;10310798;28;20716;-63
2023/12/30 14:43:54;;;;;;;8.30;1.98;;;11.50;94.90;;;;;;10317157;28;20250;-63
2023/12/30 14:48:58;;;;;;;12.52;2.63;;;11.40;94.90;;;;;;10319042;28;20233;-62
2023/12/30 14:54:03;;;;;;;9.25;2.10;;;11.40;95.00;;;;;;10305863;28;20768;-63
2023/12/30 14:59:10;;;;;;;7.73;1.97;;;11.40;95.10;;;;;;10306038;28;20646;-62
2023/12/30 15:04:22;;;;;;;9.57;1.80;;;11.40;94.60;;;;;;10311375;28;20250;-62
2023/12/30 15:09:34;;;;;;;8.23;2.50;;;11.30;94.50;;;;;;10311885;28;20218;-62
2023/12/30 15:14:37;;;;;;;7.65;1.95;;;11.30;94.70;;;;;;10311602;28;20222;-63
2023/12/30 15:19:41;;;;;;;7.40;2.20;;;11.20;95.10;;;;;;10313436;28;20203;-63
2023/12/30 15:24:46;;;;;;;7.53;1.98;;;11.10;94.70;;;;;;10311454;28;20229;-62
2023/12/30 15:29:50;;;;;;;7.65;2.05;;;11.10;94.90;;;;;;10305912;28;20206;-62
2023/12/30 15:34:58;;;;;;;8.00;2.00;;;11.00;95.00;;;;;;10318858;28;20272;-63
2023/12/30 15:40:07;;;;;;;6.63;2.15;;;11.00;95.70;;;;;;10309367;28;20205;-62
2023/12/30 15:45:14;;;;;;;6.50;2.22;;;11.00;95.60;;;;;;10315305;28;20308;-63
2023/12/30 15:50:25;;;;;;;8.13;2.10;;;11.00;95.50;;;;;;10312036;28;20860;-61
2023/12/30 15:55:30;;;;;;;7.25;2.53;;;11.00;94.70;;;;;;10313492;28;20226;-64
2023/12/30 16:00:33;;;;;;;9.60;2.03;;;11.00;95.20;;;;;;10310029;28;20674;-63
2023/12/30 16:05:37;;;;;;;9.40;2.07;;;11.00;95.30;;;;;;10314222;28;20307;-63
2023/12/30 16:10:42;;;;;;;9.03;2.20;;;11.00;95.80;;;;;;10305742;28;20650;-63
2023/12/30 16:15:49;;;;;;;6.07;2.13;;;11.00;95.70;;;;;;10316688;28;20849;-63
2023/12/30 16:20:53;;;;;;;8.93;3.33;;;11.00;95.50;;;;;;10306967;28;20210;-64
2023/12/30 16:25:58;;;;;;;7.07;2.65;;;10.90;95.50;;;;;;10315052;28;20261;-62
2023/12/30 16:31:02;;;;;;;9.68;2.63;;;10.90;96.00;;;;;;10316471;28;20206;-62
2023/12/30 16:36:07;;;;;;;6.72;2.70;;;10.90;95.90;;;;;;10317900;28;20218;-63
2023/12/30 16:41:14;;;;;;;8.97;2.97;;;10.90;96.00;;;;;;10314062;28;20210;-63
2023/12/30 16:46:18;;;;;;;5.60;2.50;;;10.80;95.80;;;;;;10318127;28;20784;-62
2023/12/30 16:51:22;;;;;;;8.30;2.80;;;10.80;95.80;;;;;;10324783;28;20941;-60
2023/12/30 16:56:27;;;;;;;9.93;3.70;;;10.80;95.70;;;;;;10315096;28;20237;-60
2023/12/30 17:01:30;;;;;;;10.17;3.47;;;10.80;95.70;;;;;;10311645;28;21002;-62
2023/12/30 17:06:34;;;;;;;8.90;3.25;;;10.80;95.80;;;;;;10314224;28;20307;-62
2023/12/30 17:11:39;;;;;;;6.35;2.97;;;10.80;95.80;;;;;;10317935;28;20205;-60
2023/12/30 17:16:43;;;;;;;9.93;3.40;;;10.80;95.80;;;;;;10308394;28;20245;-62
2023/12/30 17:21:46;;;;;;;8.18;3.10;;;10.70;96.50;;;;;;10311780;28;20409;-62
2023/12/30 17:26:52;;;;;;;4.03;2.43;;;10.80;96.40;;;;;;10319107;28;20225;-62
2023/12/30 17:31:55;;;;;;;10.17;3.20;;;10.80;96.20;;;;;;10311832;28;20225;-62
2023/12/30 17:36:59;;;;;;;9.65;2.90;;;10.70;96.00;;;;;;10315742;28;20217;-62
2023/12/30 17:42:05;;;;;;;6.13;2.50;;;10.80;95.90;;;;;;10316943;28;20206;-62
2023/12/30 17:47:10;;;;;;;6.43;2.20;;;10.80;95.60;;;;;;10308420;28;20261;-61
2023/12/30 17:52:13;;;;;;;5.35;1.75;;;10.80;96.00;;;;;;10309531;28;20198;-61
2023/12/30 17:57:18;;;;;;;7.90;2.53;;;10.80;96.50;;;;;;10312796;28;20921;-62
2023/12/30 18:02:22;;;;;;;7.35;2.28;;;10.80;95.70;;;;;;10319727;28;20211;-62
2023/12/30 18:07:26;;;;;;;5.07;2.08;;;10.80;96.40;;;;;;10310640;28;20230;-62
2023/12/30 18:12:31;;;;;;;6.68;2.22;;;10.80;96.30;;;;;;10316982;28;20197;-61
2023/12/30 18:17:34;;;;;;;3.83;2.00;;;10.80;96.20;;;;;;10309253;28;20205;-61
2023/12/30 18:22:40;;;;;;;3.92;1.48;;;10.80;95.60;;;;;;10311228;28;20209;-61
2023/12/30 18:27:45;;;;;;;5.57;1.43;;;10.80;95.70;;;;;;10319882;28;20705;-61
2023/12/30 18:32:48;;;;;;;3.50;1.47;;;10.80;96.30;;;;;;10313122;28;20217;-61
2023/12/30 18:37:52;;;;;;;5.50;2.13;;;10.80;95.70;;;;;;10314422;28;20268;-61
2023/12/30 18:42:57;;;;;;;6.22;2.25;;;10.70;96.20;;;;;;10311925;28;20229;-61
2023/12/30 18:48:02;;;;;;;2.40;1.60;;;10.70;96.10;;;;;;10318946;28;20217;-61
2023/12/30 18:53:06;;;;;;;3.90;1.70;;;10.70;96.20;;;;;;10314852;28;20229;-60
2023/12/30 18:58:11;;;;;;;4.27;2.00;;;10.80;96.20;;;;;;10312354;28;20670;-61
2023/12/30 19:03:15;;;;;;;4.68;1.95;;;10.70;95.90;;;;;;10309064;28;20226;-61
2023/12/30 19:08:20;;;;;;;4.50;2.33;;;10.80;96.70;;;;;;10307476;28;20252;-61
2023/12/30 19:13:25;;;;;;;3.17;2.08;;;10.70;96.30;;;;;;10321181;28;20225;-61
2023/12/30 19:18:28;;;;;;;5.03;1.80;;;10.80;96.60;;;;;;10313231;28;20654;-61
2023/12/30 19:23:34;;;;;;;4.28;2.22;;;10.70;96.50;;;;;;10315717;28;20256;-60
2023/12/30 19:28:39;;;;;;;2.33;1.33;;;10.80;96.90;;;;;;10316414;28;20783;-60
2023/12/30 19:33:43;;;;;;;3.83;1.80;;;10.80;97.00;;;;;;10314818;28;20312;-59
2023/12/30 19:38:47;;;;;;;2.43;1.77;;;10.70;96.10;;;;;;10313762;28;20234;-60
2023/12/30 19:43:52;;;;;;;2.20;1.25;;;10.70;96.70;;;;;;10310896;28;20280;-61
2023/12/30 19:49:01;;;;;;;5.93;2.17;;;10.70;96.80;;;;;;10314695;28;20221;-60
2023/12/30 19:54:08;;;;;;;1.73;1.10;;;10.80;96.70;;;;;;10314266;28;20225;-61
2023/12/30 19:59:13;;;;;;;3.53;1.65;;;10.70;97.00;;;;;;10313646;28;20203;-62
2023/12/30 20:04:16;;;;;;;4.90;1.90;;;10.70;96.80;;;;;;10311722;28;20283;-61
2023/12/30 20:09:20;;;;;;;2.78;1.33;;;10.80;96.90;;;;;;10309394;28;20698;-60
2023/12/30 20:14:25;;;;;;;2.90;1.65;;;10.70;96.90;;;;;;10323338;28;20291;-61
2023/12/30 20:19:29;;;;;;;3.42;1.58;;;10.70;96.70;;;;;;10323372;28;20325;-60
2023/12/30 20:24:32;;;;;;;4.13;1.65;;;10.70;96.50;;;;;;10314140;28;20248;-61
2023/12/30 20:29:39;;;;;;;5.70;1.40;;;10.70;97.00;;;;;;10320772;28;20280;-60
2023/12/30 20:34:43;;;;;;;3.57;1.63;;;10.70;96.20;;;;;;10315337;28;20229;-61
2023/12/30 20:39:48;;;;;;;5.53;1.50;;;10.70;96.70;;;;;;10313810;28;20624;-61
2023/12/30 20:44:53;;;;;;;2.20;1.30;;;10.70;96.50;;;;;;10315970;28;20586;-62
2023/12/30 20:49:57;;;;;;;3.60;1.70;;;10.70;97.10;;;;;;10323186;28;20221;-61
2023/12/30 20:55:03;;;;;;;2.72;1.30;;;10.70;96.40;;;;;;10317745;28;20609;-62
2023/12/30 21:00:10;;;;;;;4.07;1.50;;;10.70;96.60;;;;;;10310624;28;20202;-61
2023/12/30 21:05:14;;;;;;;1.67;1.00;;;10.70;96.80;;;;;;10315053;28;20257;-60
2023/12/30 21:10:18;;;;;;;3.33;1.30;;;10.60;96.90;;;;;;10308368;28;20264;-62
2023/12/30 21:15:24;;;;;;;3.50;1.23;;;10.60;96.90;;;;;;10320632;28;20245;-61
2023/12/30 21:20:28;;;;;;;2.07;1.30;;;10.60;97.00;;;;;;10319815;28;20565;-62
2023/12/30 21:25:32;;;;;;;2.70;0.87;;;10.60;97.10;;;;;;10315890;28;20268;-62
2023/12/30 21:30:37;;;;;;;4.00;2.70;;;10.60;97.10;;;;;;10311766;28;20202;-61
2023/12/30 21:35:41;;;;;;;4.00;1.25;;;10.50;96.80;;;;;;10311922;28;20234;-62
2023/12/30 21:40:45;;;;;;;1.83;1.10;;;10.60;97.20;;;;;;10314319;28;20233;-63
2023/12/30 21:45:53;;;;;;;2.20;1.37;;;10.60;97.60;;;;;;10324028;28;20221;-61
2023/12/30 21:50:59;;;;;;;3.72;1.33;;;10.60;97.20;;;;;;10314242;28;20228;-62
2023/12/30 21:56:06;;;;;;;2.55;1.23;;;10.60;96.80;;;;;;10319402;28;20234;-62
2023/12/30 22:01:11;;;;;;;1.70;1.13;;;10.60;97.10;;;;;;10313623;28;20269;-60
2023/12/30 22:06:18;;;;;;;1.20;0.98;;;10.60;97.40;;;;;;10316248;28;20669;-61
2023/12/30 22:11:29;;;;;;;2.63;0.88;;;10.60;97.40;;;;;;10306982;28;20690;-60
2023/12/30 22:16:38;;;;;;;2.70;1.20;;;10.60;97.10;;;;;;10315672;28;20296;-61
2023/12/30 22:21:41;;;;;;;2.83;1.10;;;10.70;96.90;;;;;;10315346;28;20209;-61
2023/12/30 22:26:45;;;;;;;2.37;1.00;;;10.70;97.40;;;;;;10311428;28;20254;-62
2023/12/30 22:31:49;;;;;;;1.40;0.80;;;10.70;97.70;;;;;;10307441;28;20210;-62
2023/12/30 22:36:53;;;;;;;1.63;0.83;;;10.70;97.80;;;;;;10311979;28;20226;-62
2023/12/30 22:41:58;;;;;;;1.23;0.60;;;10.70;97.60;;;;;;10317054;28;20201;-62
2023/12/30 22:47:03;;;;;;;1.07;0.90;;;10.70;97.50;;;;;;10312058;28;20234;-61
2023/12/30 22:52:07;;;;;;;1.27;0.70;;;10.70;98.00;;;;;;10307211;28;20257;-62
2023/12/30 22:57:11;;;;;;;2.70;0.80;;;10.70;97.80;;;;;;10320819;28;20225;-61
2023/12/30 23:02:21;;;;;;;1.13;1.00;;;10.70;97.70;;;;;;10314796;28;20206;-62
2023/12/30 23:07:24;;;;;;;1.03;0.70;;;10.70;98.10;;;;;;10311519;28;20248;-61
2023/12/30 23:12:30;;;;;;;1.87;0.90;;;10.70;98.30;;;;;;10308670;28;20201;-61
2023/12/30 23:17:35;;;;;;;1.10;0.90;;;10.70;97.80;;;;;;10310091;28;20197;-62
2023/12/30 23:22:38;;;;;;;2.30;1.20;;;10.70;98.20;;;;;;10317977;28;20197;-62
2023/12/30 23:27:46;;;;;;;3.93;0.90;;;10.70;98.00;;;;;;10313386;28;20226;-61
2023/12/30 23:32:51;;;;;;;1.37;0.77;;;10.70;97.90;;;;;;10312115;28;20243;-62
2023/12/30 23:38:04;;;;;;;1.50;0.97;;;10.60;97.60;;;;;;10307284;28;20299;-62
2023/12/30 23:43:11;;;;;;;1.60;0.80;;;10.60;97.60;;;;;;10307700;28;20221;-63
2023/12/30 23:48:16;;;;;;;1.77;1.00;;;10.60;97.50;;;;;;10305503;28;20240;-62
2023/12/30 23:53:19;;;;;;;1.33;1.00;;;10.60;97.50;;;;;;10308601;28;20229;-64
2023/12/30 23:58:23;;;;;;;2.53;1.30;;;10.50;97.40;;;;;;10317074;28;20210;-60
